createdAt,value
2022-09-20T00:00:29.980Z,4.00
2022-09-20T00:01:30.123Z,3.70
2022-09-20T00:02:29.975Z,3.90
2022-09-20T00:03:29.974Z,4.90
2022-09-20T00:04:29.975Z,4.30
2022-09-20T00:05:30.079Z,5.10
2022-09-20T00:06:29.979Z,4.80
2022-09-20T00:07:29.963Z,5.00
2022-09-20T00:08:29.958Z,4.10
2022-09-20T00:09:29.958Z,4.20
2022-09-20T00:10:29.951Z,3.70
2022-09-20T00:11:29.951Z,3.70
2022-09-20T00:12:29.962Z,5.10
2022-09-20T00:13:29.949Z,4.90
2022-09-20T00:14:29.946Z,3.90
2022-09-20T00:15:29.941Z,4.90
2022-09-20T00:16:29.977Z,4.10
2022-09-20T00:17:29.937Z,4.80
2022-09-20T00:18:29.935Z,4.30
2022-09-20T00:19:29.929Z,6.00
2022-09-20T00:20:29.928Z,6.50
2022-09-20T00:21:29.948Z,5.50
2022-09-20T00:22:29.925Z,5.30
2022-09-20T00:23:29.921Z,6.90
2022-09-20T00:24:29.916Z,5.20
2022-09-20T00:25:29.917Z,5.40
2022-09-20T00:26:29.911Z,7.10
2022-09-20T00:27:29.917Z,7.50
2022-09-20T00:28:29.907Z,6.00
2022-09-20T00:29:29.910Z,5.40
2022-09-20T00:30:29.903Z,4.90
2022-09-20T00:31:29.973Z,6.70
2022-09-20T00:32:29.896Z,6.70
2022-09-20T00:33:29.897Z,5.60
2022-09-20T00:34:29.889Z,5.50
2022-09-20T00:35:29.892Z,4.50
2022-09-20T00:36:29.889Z,4.70
2022-09-20T00:37:29.905Z,5.90
2022-09-20T00:38:29.889Z,7.70
2022-09-20T00:39:29.882Z,6.00
2022-09-20T00:40:29.927Z,7.40
2022-09-20T00:41:29.912Z,5.60
2022-09-20T00:42:29.872Z,5.80
2022-09-20T00:43:29.872Z,5.90
2022-09-20T00:44:29.869Z,6.00
2022-09-20T00:45:29.933Z,4.90
2022-09-20T00:46:29.861Z,5.30
2022-09-20T00:47:29.861Z,5.90
2022-09-20T00:48:29.859Z,5.20
2022-09-20T00:49:29.859Z,6.50
2022-09-20T00:50:29.852Z,5.50
2022-09-20T00:51:29.855Z,5.20
2022-09-20T00:52:29.851Z,5.80
2022-09-20T00:53:29.868Z,4.20
2022-09-20T00:54:29.843Z,6.10
2022-09-20T00:55:29.844Z,4.80
2022-09-20T00:56:29.840Z,6.50
2022-09-20T00:57:29.836Z,4.20
2022-09-20T00:58:29.835Z,4.60
2022-09-20T00:59:29.836Z,5.80
2022-09-20T01:00:29.833Z,4.90
2022-09-20T01:01:29.914Z,5.30
2022-09-20T01:02:29.929Z,4.90
2022-09-20T01:03:29.827Z,5.10
2022-09-20T01:04:29.829Z,6.10
2022-09-20T01:05:29.822Z,5.10
2022-09-20T01:06:29.818Z,5.70
2022-09-20T01:07:29.812Z,4.80
2022-09-20T01:08:29.811Z,4.60
2022-09-20T01:09:29.939Z,5.70
2022-09-20T01:10:29.809Z,6.30
2022-09-20T01:11:29.805Z,5.40
2022-09-20T01:12:29.799Z,4.30
2022-09-20T01:13:29.809Z,5.90
2022-09-20T01:14:29.794Z,6.80
2022-09-20T01:15:29.806Z,5.70
2022-09-20T01:16:29.847Z,5.10
2022-09-20T01:17:29.791Z,7.40
2022-09-20T01:18:29.787Z,5.90
2022-09-20T01:19:29.785Z,6.00
2022-09-20T01:20:29.781Z,6.50
2022-09-20T01:21:29.781Z,5.20
2022-09-20T01:22:29.775Z,5.20
2022-09-20T01:23:29.777Z,6.60
2022-09-20T01:24:29.782Z,5.30
2022-09-20T01:25:29.786Z,5.80
2022-09-20T01:26:29.766Z,4.80
2022-09-20T01:27:29.766Z,3.90
2022-09-20T01:28:29.761Z,6.40
2022-09-20T01:29:29.761Z,6.00
2022-09-20T01:30:29.758Z,5.90
2022-09-20T01:31:29.816Z,6.10
2022-09-20T01:32:29.753Z,5.40
2022-09-20T01:33:29.751Z,5.60
2022-09-20T01:34:29.747Z,4.70
2022-09-20T01:35:29.754Z,6.10
2022-09-20T01:36:29.743Z,5.70
2022-09-20T01:37:29.748Z,6.10
2022-09-20T01:38:29.752Z,5.20
2022-09-20T01:39:29.753Z,6.00
2022-09-20T01:40:29.764Z,5.00
2022-09-20T01:41:29.751Z,4.80
2022-09-20T01:42:29.733Z,6.70
2022-09-20T01:43:29.730Z,5.40
2022-09-20T01:44:29.723Z,6.10
2022-09-20T01:45:29.835Z,4.90
2022-09-20T01:46:29.727Z,5.50
2022-09-20T01:47:29.721Z,6.60
2022-09-20T01:48:29.719Z,5.60
2022-09-20T01:49:29.719Z,6.70
2022-09-20T01:50:29.709Z,6.10
2022-09-20T01:51:29.710Z,5.70
2022-09-20T01:52:29.711Z,5.20
2022-09-20T01:53:29.709Z,6.60
2022-09-20T01:54:29.703Z,5.20
2022-09-20T01:55:29.701Z,4.60
2022-09-20T01:56:29.696Z,6.10
2022-09-20T01:57:29.713Z,5.90
2022-09-20T01:58:29.691Z,5.80
2022-09-20T01:59:30.077Z,3.40
2022-09-20T02:00:29.691Z,6.60
2022-09-20T02:01:29.810Z,5.50
2022-09-20T02:02:29.731Z,5.90
2022-09-20T02:03:29.681Z,4.90
2022-09-20T02:04:29.678Z,5.40
2022-09-20T02:05:29.692Z,4.70
2022-09-20T02:06:29.675Z,5.10
2022-09-20T02:07:29.677Z,5.30
2022-09-20T02:08:29.671Z,4.20
2022-09-20T02:09:29.669Z,4.30
2022-09-20T02:10:29.665Z,5.60
2022-09-20T02:11:29.665Z,4.70
2022-09-20T02:12:33.559Z,4.00
2022-09-20T02:13:29.678Z,5.70
2022-09-20T02:14:29.658Z,4.70
2022-09-20T02:15:29.661Z,4.70
2022-09-20T02:16:29.745Z,4.60
2022-09-20T02:17:29.650Z,5.90
2022-09-20T02:18:29.647Z,5.80
2022-09-20T02:19:29.647Z,4.40
2022-09-20T02:20:29.643Z,5.30
2022-09-20T02:21:29.643Z,7.20
2022-09-20T02:22:29.639Z,4.70
2022-09-20T02:23:29.636Z,6.60
2022-09-20T02:24:29.635Z,6.40
2022-09-20T02:25:29.638Z,6.90
2022-09-20T02:26:29.629Z,5.20
2022-09-20T02:27:29.633Z,6.10
2022-09-20T02:28:29.624Z,5.60
2022-09-20T02:29:29.645Z,5.40
2022-09-20T02:30:29.622Z,5.60
2022-09-20T02:31:29.714Z,4.90
2022-09-20T02:32:29.616Z,5.70
2022-09-20T02:33:29.617Z,4.80
2022-09-20T02:34:29.612Z,4.70
2022-09-20T02:35:29.609Z,4.50
2022-09-20T02:36:29.607Z,5.30
2022-09-20T02:37:29.605Z,4.30
2022-09-20T02:38:29.604Z,5.80
2022-09-20T02:39:29.603Z,5.80
2022-09-20T02:40:29.667Z,5.10
2022-09-20T02:41:29.598Z,6.00
2022-09-20T02:42:29.593Z,6.10
2022-09-20T02:43:29.593Z,5.30
2022-09-20T02:44:29.613Z,5.80
2022-09-20T02:45:29.661Z,5.30
2022-09-20T02:46:29.589Z,6.70
2022-09-20T02:47:29.581Z,4.50
2022-09-20T02:48:29.582Z,5.20
2022-09-20T02:49:29.582Z,6.60
2022-09-20T02:50:29.577Z,5.30
2022-09-20T02:51:29.572Z,5.40
2022-09-20T02:52:29.572Z,6.80
2022-09-20T02:53:29.574Z,6.90
2022-09-20T02:54:29.585Z,4.30
2022-09-20T02:55:29.565Z,6.00
2022-09-20T02:56:29.563Z,5.80
2022-09-20T02:57:29.570Z,5.30
2022-09-20T02:58:29.557Z,5.00
2022-09-20T02:59:29.557Z,5.40
2022-09-20T03:00:29.553Z,5.30
2022-09-20T03:01:29.623Z,5.50
2022-09-20T03:02:29.606Z,5.10
2022-09-20T03:03:29.548Z,5.10
2022-09-20T03:04:29.544Z,6.10
2022-09-20T03:05:29.545Z,5.00
2022-09-20T03:06:29.540Z,5.20
2022-09-20T03:07:29.539Z,4.30
2022-09-20T03:08:29.535Z,5.00
2022-09-20T03:09:29.537Z,6.70
2022-09-20T03:10:29.531Z,5.60
2022-09-20T03:11:29.531Z,6.60
2022-09-20T03:12:29.527Z,7.10
2022-09-20T03:13:29.528Z,5.70
2022-09-20T03:14:29.520Z,5.00
2022-09-20T03:15:29.523Z,7.00
2022-09-20T03:16:29.677Z,5.90
2022-09-20T03:17:29.538Z,7.40
2022-09-20T03:18:29.513Z,5.60
2022-09-20T03:19:29.523Z,5.30
2022-09-20T03:20:29.508Z,5.60
2022-09-20T03:21:29.511Z,4.70
2022-09-20T03:22:29.505Z,5.80
2022-09-20T03:23:29.504Z,3.80
2022-09-20T03:24:29.503Z,6.00
2022-09-20T03:25:29.496Z,6.00
2022-09-20T03:26:29.498Z,4.90
2022-09-20T03:27:29.493Z,6.30
2022-09-20T03:28:29.494Z,5.50
2022-09-20T03:29:29.492Z,5.80
2022-09-20T03:30:29.488Z,5.00
2022-09-20T03:31:29.523Z,4.80
2022-09-20T03:32:29.486Z,6.10
2022-09-20T03:33:29.502Z,7.00
2022-09-20T03:34:29.482Z,4.70
2022-09-20T03:35:29.476Z,5.90
2022-09-20T03:36:29.475Z,6.30
2022-09-20T03:37:29.472Z,4.90
2022-09-20T03:38:29.471Z,5.20
2022-09-20T03:39:29.467Z,6.30
2022-09-20T03:40:29.588Z,6.20
2022-09-20T03:41:29.462Z,6.90
2022-09-20T03:42:29.461Z,4.10
2022-09-20T03:43:29.469Z,5.40
2022-09-20T03:44:29.462Z,5.30
2022-09-20T03:45:29.512Z,6.60
2022-09-20T03:46:29.453Z,5.70
2022-09-20T03:47:29.453Z,5.90
2022-09-20T03:48:29.447Z,4.80
2022-09-20T03:49:29.464Z,4.90
2022-09-20T03:50:29.454Z,4.60
2022-09-20T03:51:33.919Z,5.10
2022-09-20T03:52:29.442Z,6.80
2022-09-20T03:53:29.437Z,6.30
2022-09-20T03:54:29.432Z,5.80
2022-09-20T03:55:29.429Z,5.00
2022-09-20T03:56:29.433Z,5.40
2022-09-20T03:57:29.430Z,5.50
2022-09-20T03:58:29.426Z,7.80
2022-09-20T03:59:29.429Z,6.70
2022-09-20T04:00:29.427Z,4.40
2022-09-20T04:01:29.461Z,6.00
2022-09-20T04:02:29.515Z,6.80
2022-09-20T04:03:29.414Z,7.10
2022-09-20T04:04:29.415Z,5.90
2022-09-20T04:05:29.430Z,8.10
2022-09-20T04:06:29.408Z,6.90
2022-09-20T04:07:29.406Z,7.30
2022-09-20T04:08:29.404Z,10.90
2022-09-20T04:09:29.402Z,12.60
2022-09-20T04:10:29.402Z,10.40
2022-09-20T04:11:29.409Z,12.30
2022-09-20T04:12:29.397Z,11.50
2022-09-20T04:13:29.397Z,11.10
2022-09-20T04:14:29.404Z,11.60
2022-09-20T04:15:29.397Z,15.40
2022-09-20T04:16:29.474Z,14.70
2022-09-20T04:17:29.384Z,13.40
2022-09-20T04:18:29.382Z,12.10
2022-09-20T04:19:32.872Z,9.00
2022-09-20T04:20:29.378Z,9.20
2022-09-20T04:21:29.393Z,8.50
2022-09-20T04:22:29.373Z,7.80
2022-09-20T04:23:29.371Z,7.80
2022-09-20T04:24:29.377Z,9.10
2022-09-20T04:25:29.364Z,8.70
2022-09-20T04:26:29.371Z,10.60
2022-09-20T04:27:29.368Z,7.90
2022-09-20T04:28:29.360Z,8.60
2022-09-20T04:29:29.357Z,7.30
2022-09-20T04:30:29.353Z,8.60
2022-09-20T04:31:29.384Z,7.50
2022-09-20T04:32:29.349Z,8.20
2022-09-20T04:33:29.349Z,7.10
2022-09-20T04:34:29.348Z,8.70
2022-09-20T04:35:29.341Z,11.60
2022-09-20T04:36:29.342Z,8.30
2022-09-20T04:37:29.358Z,8.70
2022-09-20T04:38:29.337Z,9.50
2022-09-20T04:39:29.337Z,9.20
2022-09-20T04:40:29.395Z,8.70
2022-09-20T04:41:29.337Z,8.40
2022-09-20T04:42:29.332Z,9.00
2022-09-20T04:43:29.323Z,8.40
2022-09-20T04:44:29.322Z,7.30
2022-09-20T04:45:29.376Z,8.40
2022-09-20T04:46:29.320Z,6.20
2022-09-20T04:47:29.314Z,7.80
2022-09-20T04:48:29.313Z,7.50
2022-09-20T04:49:29.311Z,6.70
2022-09-20T04:50:29.310Z,6.80
2022-09-20T04:51:29.307Z,6.70
2022-09-20T04:52:29.303Z,8.00
2022-09-20T04:53:29.321Z,6.60
2022-09-20T04:54:29.299Z,7.50
2022-09-20T04:55:29.300Z,6.80
2022-09-20T04:56:29.300Z,6.20
2022-09-20T04:57:29.296Z,7.20
2022-09-20T04:58:29.399Z,8.00
2022-09-20T04:59:29.324Z,7.00
2022-09-20T05:00:29.290Z,6.10
2022-09-20T05:01:32.326Z,7.00
2022-09-20T05:02:29.360Z,6.50
2022-09-20T05:03:29.283Z,6.70
2022-09-20T05:04:29.281Z,7.60
2022-09-20T05:05:29.280Z,7.40
2022-09-20T05:06:29.274Z,6.70
2022-09-20T05:07:29.272Z,5.90
2022-09-20T05:08:29.271Z,8.50
2022-09-20T05:09:29.285Z,7.50
2022-09-20T05:10:29.267Z,5.80
2022-09-20T05:11:29.263Z,5.60
2022-09-20T05:12:29.263Z,6.10
2022-09-20T05:13:29.260Z,7.10
2022-09-20T05:14:29.258Z,7.50
2022-09-20T05:15:29.253Z,6.50
2022-09-20T05:16:29.310Z,6.40
2022-09-20T05:17:29.252Z,5.70
2022-09-20T05:18:29.247Z,8.10
2022-09-20T05:19:29.244Z,4.90
2022-09-20T05:20:29.244Z,7.60
2022-09-20T05:21:29.242Z,8.30
2022-09-20T05:22:29.239Z,5.80
2022-09-20T05:23:29.236Z,7.20
2022-09-20T05:24:29.236Z,6.50
2022-09-20T05:25:29.253Z,6.50
2022-09-20T05:26:29.237Z,7.30
2022-09-20T05:27:29.231Z,6.50
2022-09-20T05:28:29.228Z,7.60
2022-09-20T05:29:29.224Z,8.70
2022-09-20T05:30:29.221Z,7.80
2022-09-20T05:31:29.264Z,6.80
2022-09-20T05:32:29.218Z,6.20
2022-09-20T05:33:29.213Z,7.20
2022-09-20T05:34:29.212Z,8.30
2022-09-20T05:35:29.209Z,7.50
2022-09-20T05:36:34.248Z,7.10
2022-09-20T05:37:29.205Z,8.40
2022-09-20T05:39:29.203Z,8.70
2022-09-20T05:40:29.276Z,8.00
2022-09-20T05:41:29.219Z,7.60
2022-09-20T05:42:29.201Z,7.50
2022-09-20T05:43:29.191Z,8.60
2022-09-20T05:44:29.192Z,9.20
2022-09-20T05:45:29.226Z,8.00
2022-09-20T05:46:29.186Z,5.90
2022-09-20T05:47:29.181Z,7.10
2022-09-20T05:48:29.192Z,7.40
2022-09-20T05:49:29.189Z,7.10
2022-09-20T05:50:29.179Z,7.70
2022-09-20T05:51:29.172Z,8.20
2022-09-20T05:52:29.172Z,6.20
2022-09-20T05:53:29.167Z,7.80
2022-09-20T05:54:29.165Z,6.00
2022-09-20T05:55:29.164Z,6.10
2022-09-20T05:56:29.167Z,7.90
2022-09-20T05:57:29.189Z,6.50
2022-09-20T05:58:29.164Z,6.50
2022-09-20T05:59:29.157Z,7.80
2022-09-20T06:00:29.156Z,6.10
2022-09-20T06:01:29.181Z,7.30
2022-09-20T06:02:29.242Z,8.30
2022-09-20T06:03:29.151Z,7.40
2022-09-20T06:04:29.151Z,8.10
2022-09-20T06:05:29.153Z,7.10
2022-09-20T06:06:32.392Z,8.30
2022-09-20T06:07:29.138Z,6.40
2022-09-20T06:08:29.138Z,8.10
2022-09-20T06:09:29.136Z,8.60
2022-09-20T06:10:29.136Z,7.50
2022-09-20T06:11:29.141Z,9.10
2022-09-20T06:12:29.132Z,6.30
2022-09-20T06:13:29.148Z,8.40
2022-09-20T06:14:29.126Z,7.90
2022-09-20T06:15:29.123Z,7.90
2022-09-20T06:16:29.162Z,9.20
2022-09-20T06:17:29.119Z,9.30
2022-09-20T06:18:29.116Z,8.10
2022-09-20T06:19:29.117Z,7.50
2022-09-20T06:20:29.111Z,11.10
2022-09-20T06:21:29.115Z,9.40
2022-09-20T06:22:29.111Z,9.90
2022-09-20T06:23:29.106Z,11.90
2022-09-20T06:24:29.105Z,7.70
2022-09-20T06:25:29.103Z,8.10
2022-09-20T06:26:29.101Z,6.90
2022-09-20T06:27:29.096Z,9.60
2022-09-20T06:28:29.095Z,7.20
2022-09-20T06:29:29.119Z,10.60
2022-09-20T06:30:29.164Z,8.70
2022-09-20T06:31:29.086Z,7.80
2022-09-20T06:32:29.088Z,9.60
2022-09-20T06:33:29.084Z,10.80
2022-09-20T06:34:29.086Z,11.90
2022-09-20T06:35:29.081Z,8.40
2022-09-20T06:36:29.084Z,10.50
2022-09-20T06:37:29.076Z,10.80
2022-09-20T06:38:29.074Z,8.30
2022-09-20T06:39:29.071Z,8.80
2022-09-20T06:40:29.112Z,11.60
2022-09-20T06:41:29.877Z,9.90
2022-09-20T06:42:29.066Z,9.90
2022-09-20T06:43:29.063Z,12.20
2022-09-20T06:44:29.063Z,11.60
2022-09-20T06:45:29.080Z,11.50
2022-09-20T06:46:29.065Z,10.70
2022-09-20T06:47:29.057Z,11.00
2022-09-20T06:48:29.053Z,10.00
2022-09-20T06:49:29.051Z,13.60
2022-09-20T06:50:29.050Z,8.90
2022-09-20T06:51:29.051Z,10.50
2022-09-20T06:52:29.047Z,11.80
2022-09-20T06:53:29.042Z,12.40
2022-09-20T06:54:29.043Z,10.90
2022-09-20T06:55:29.511Z,11.30
2022-09-20T06:56:29.036Z,11.70
2022-09-20T06:57:29.039Z,12.30
2022-09-20T06:58:29.035Z,10.90
2022-09-20T06:59:29.188Z,12.50
2022-09-20T07:00:29.028Z,12.80
2022-09-20T07:01:30.647Z,10.50
2022-09-20T07:02:29.115Z,11.40
2022-09-20T07:03:29.020Z,12.60
2022-09-20T07:04:29.024Z,12.50
2022-09-20T07:05:29.016Z,12.60
2022-09-20T07:06:29.015Z,11.70
2022-09-20T07:07:29.014Z,12.40
2022-09-20T07:08:29.012Z,11.90
2022-09-20T07:09:29.006Z,13.10
2022-09-20T07:10:29.008Z,12.60
2022-09-20T07:11:29.005Z,12.10
2022-09-20T07:12:29.003Z,10.40
2022-09-20T07:13:29.000Z,10.20
2022-09-20T07:14:28.997Z,10.50
2022-09-20T07:15:28.994Z,13.20
2022-09-20T07:16:29.051Z,12.70
2022-09-20T07:17:29.006Z,11.80
2022-09-20T07:18:28.991Z,13.80
2022-09-20T07:19:28.984Z,13.10
2022-09-20T07:20:28.983Z,12.80
2022-09-20T07:21:28.982Z,13.40
2022-09-20T07:22:28.982Z,12.20
2022-09-20T07:23:28.975Z,10.90
2022-09-20T07:24:28.973Z,11.80
2022-09-20T07:25:28.972Z,11.10
2022-09-20T07:26:28.972Z,11.90
2022-09-20T07:27:29.546Z,11.70
2022-09-20T07:28:28.968Z,14.50
2022-09-20T07:29:28.963Z,10.40
2022-09-20T07:30:28.960Z,12.70
2022-09-20T07:31:29.004Z,16.00
2022-09-20T07:32:28.961Z,11.90
2022-09-20T07:33:28.974Z,10.70
2022-09-20T07:34:28.955Z,12.80
2022-09-20T07:35:28.950Z,11.90
2022-09-20T07:36:28.949Z,11.80
2022-09-20T07:37:28.947Z,13.30
2022-09-20T07:38:28.947Z,12.10
2022-09-20T07:39:28.943Z,13.30
2022-09-20T07:40:28.993Z,13.20
2022-09-20T07:41:28.941Z,15.50
2022-09-20T07:42:28.937Z,15.20
2022-09-20T07:43:28.936Z,12.00
2022-09-20T07:44:28.932Z,10.90
2022-09-20T07:45:28.986Z,10.30
2022-09-20T07:46:28.929Z,10.60
2022-09-20T07:47:28.928Z,11.40
2022-09-20T07:48:30.176Z,11.00
2022-09-20T07:49:28.945Z,12.20
2022-09-20T07:50:28.926Z,11.50
2022-09-20T07:51:28.923Z,10.60
2022-09-20T07:52:28.920Z,11.10
2022-09-20T07:53:28.918Z,12.20
2022-09-20T07:54:28.917Z,10.70
2022-09-20T07:55:28.914Z,9.70
2022-09-20T07:56:28.914Z,10.40
2022-09-20T07:57:28.912Z,10.70
2022-09-20T07:58:28.909Z,11.40
2022-09-20T07:59:28.907Z,10.60
2022-09-20T08:00:28.904Z,12.30
2022-09-20T08:01:28.968Z,12.60
2022-09-20T08:02:28.943Z,10.20
2022-09-20T08:03:28.899Z,9.40
2022-09-20T08:04:28.899Z,8.70
2022-09-20T08:05:28.921Z,10.70
2022-09-20T08:06:28.894Z,12.80
2022-09-20T08:07:28.915Z,9.80
2022-09-20T08:08:28.898Z,10.90
2022-09-20T08:09:28.900Z,9.70
2022-09-20T08:10:28.893Z,9.80
2022-09-20T08:11:28.905Z,9.60
2022-09-20T08:14:28.887Z,9.60
2022-09-20T08:15:28.887Z,9.00
2022-09-20T08:16:28.942Z,8.70
2022-09-20T08:17:28.884Z,7.60
2022-09-20T08:18:28.881Z,9.20
2022-09-20T08:19:28.883Z,7.90
2022-09-20T08:20:28.880Z,7.10
2022-09-20T08:21:28.896Z,8.90
2022-09-20T08:22:28.873Z,7.80
2022-09-20T08:23:28.875Z,8.20
2022-09-20T08:24:28.874Z,8.10
2022-09-20T08:25:28.871Z,7.50
2022-09-20T08:26:28.871Z,8.30
2022-09-20T08:27:28.868Z,8.40
2022-09-20T08:28:28.885Z,6.20
2022-09-20T08:29:28.866Z,7.80
2022-09-20T08:30:28.862Z,7.20
2022-09-20T08:31:28.913Z,9.10
2022-09-20T08:32:28.869Z,7.90
2022-09-20T08:33:28.860Z,9.10
2022-09-20T08:34:28.858Z,8.80
2022-09-20T08:35:28.855Z,8.60
2022-09-20T08:36:33.722Z,7.40
2022-09-20T08:37:28.881Z,7.40
2022-09-20T08:40:28.905Z,6.60
2022-09-20T08:41:28.847Z,6.90
2022-09-20T08:42:33.601Z,7.50
2022-09-20T08:43:28.844Z,5.60
2022-09-20T08:44:28.840Z,6.40
2022-09-20T08:45:35.967Z,6.10
2022-09-20T08:46:28.965Z,6.40
2022-09-20T08:47:28.834Z,7.70
2022-09-20T08:48:28.832Z,7.00
2022-09-20T08:49:28.833Z,5.70
2022-09-20T08:50:28.842Z,6.40
2022-09-20T08:51:28.828Z,6.40
2022-09-20T08:52:28.836Z,6.80
2022-09-20T08:53:28.878Z,6.50
2022-09-20T08:54:32.303Z,7.20
2022-09-20T08:55:28.825Z,6.50
2022-09-20T08:56:28.819Z,5.60
2022-09-20T08:57:28.819Z,5.80
2022-09-20T08:58:28.814Z,5.00
2022-09-20T08:59:30.719Z,6.40
2022-09-20T09:00:28.817Z,6.10
2022-09-20T09:01:28.877Z,6.40
2022-09-20T09:02:28.863Z,6.10
2022-09-20T09:03:28.807Z,6.10
2022-09-20T09:04:28.803Z,6.30
2022-09-20T09:05:28.805Z,6.50
2022-09-20T09:06:28.802Z,6.10
2022-09-20T09:07:28.805Z,5.80
2022-09-20T09:08:28.799Z,6.50
2022-09-20T09:09:28.820Z,5.90
2022-09-20T09:10:28.794Z,5.30
2022-09-20T09:11:28.793Z,5.70
2022-09-20T09:12:28.790Z,5.80
2022-09-20T09:13:28.788Z,6.30
2022-09-20T09:14:28.785Z,6.00
2022-09-20T09:15:28.782Z,6.00
2022-09-20T09:16:34.634Z,7.80
2022-09-20T09:17:28.784Z,7.10
2022-09-20T09:18:31.601Z,6.10
2022-09-20T09:19:33.285Z,7.30
2022-09-20T09:20:28.773Z,5.90
2022-09-20T09:21:28.777Z,5.90
2022-09-20T09:22:28.767Z,7.20
2022-09-20T09:23:28.769Z,7.20
2022-09-20T09:24:28.767Z,6.40
2022-09-20T09:25:28.794Z,6.90
2022-09-20T09:26:28.763Z,6.30
2022-09-20T09:27:28.760Z,5.40
2022-09-20T09:28:28.755Z,7.80
2022-09-20T09:29:32.888Z,6.20
2022-09-20T09:30:28.751Z,8.20
2022-09-20T09:31:28.895Z,7.40
2022-09-20T09:32:28.748Z,7.60
2022-09-20T09:33:28.748Z,7.50
2022-09-20T09:34:28.741Z,7.30
2022-09-20T09:35:28.742Z,7.80
2022-09-20T09:36:28.740Z,7.10
2022-09-20T09:37:29.210Z,6.80
2022-09-20T09:38:28.736Z,6.20
2022-09-20T09:39:28.736Z,7.20
2022-09-20T09:40:28.774Z,6.50
2022-09-20T09:41:28.747Z,8.30
2022-09-20T09:42:28.732Z,6.20
2022-09-20T09:43:28.728Z,5.30
2022-09-20T09:44:28.729Z,7.10
2022-09-20T09:45:28.790Z,6.40
2022-09-20T09:46:28.717Z,6.20
2022-09-20T09:47:28.741Z,5.10
2022-09-20T09:48:28.731Z,4.90
2022-09-20T09:49:28.719Z,5.30
2022-09-20T09:50:28.714Z,4.70
2022-09-20T09:51:28.710Z,5.60
2022-09-20T09:52:28.711Z,5.40
2022-09-20T09:53:28.708Z,9.60
2022-09-20T09:54:28.703Z,3.90
2022-09-20T09:55:28.704Z,6.20
2022-09-20T09:56:28.708Z,5.00
2022-09-20T09:57:28.719Z,5.40
2022-09-20T09:58:28.696Z,4.50
2022-09-20T09:59:28.698Z,4.60
2022-09-20T10:00:28.690Z,4.80
2022-09-20T10:01:33.115Z,5.80
2022-09-20T10:02:28.736Z,4.90
2022-09-20T10:03:28.687Z,4.70
2022-09-20T10:04:28.687Z,3.20
2022-09-20T10:05:28.684Z,3.60
2022-09-20T10:06:28.678Z,3.60
2022-09-20T10:07:28.680Z,4.60
2022-09-20T10:08:28.683Z,5.10
2022-09-20T10:09:28.684Z,5.50
2022-09-20T10:10:28.675Z,5.60
2022-09-20T10:11:31.124Z,5.70
2022-09-20T10:12:28.669Z,4.80
2022-09-20T10:13:28.692Z,5.90
2022-09-20T10:14:28.665Z,5.10
2022-09-20T10:15:28.680Z,4.20
2022-09-20T10:16:28.704Z,6.80
2022-09-20T10:17:28.661Z,3.60
2022-09-20T10:18:28.654Z,6.40
2022-09-20T10:19:28.658Z,4.60
2022-09-20T10:20:28.668Z,4.10
2022-09-20T10:21:28.658Z,7.50
2022-09-20T10:22:28.646Z,4.50
2022-09-20T10:23:58.522Z,4.90
2022-09-20T10:24:28.643Z,4.30
2022-09-20T10:25:28.643Z,5.00
2022-09-20T10:26:28.640Z,5.10
2022-09-20T10:27:28.644Z,4.20
2022-09-20T10:28:28.635Z,5.80
2022-09-20T10:29:28.652Z,6.10
2022-09-20T10:30:28.631Z,5.30
2022-09-20T10:31:28.741Z,4.50
2022-09-20T10:32:28.627Z,4.90
2022-09-20T10:33:28.628Z,3.90
2022-09-20T10:34:28.622Z,4.50
2022-09-20T10:35:28.621Z,7.60
2022-09-20T10:36:28.621Z,5.70
2022-09-20T10:37:28.624Z,4.00
2022-09-20T10:38:28.621Z,4.40
2022-09-20T10:39:28.618Z,5.30
2022-09-20T10:40:28.708Z,5.20
2022-09-20T10:41:28.614Z,5.00
2022-09-20T10:42:28.610Z,5.20
2022-09-20T10:43:28.607Z,4.60
2022-09-20T10:44:28.603Z,4.20
2022-09-20T10:45:59.170Z,7.30
2022-09-20T10:46:32.219Z,4.60
2022-09-20T10:47:28.636Z,5.10
2022-09-20T10:48:28.594Z,3.80
2022-09-20T10:49:28.595Z,4.50
2022-09-20T10:50:28.589Z,4.90
2022-09-20T10:51:28.604Z,3.00
2022-09-20T10:52:28.589Z,4.50
2022-09-20T10:53:28.585Z,5.70
2022-09-20T10:54:28.584Z,4.90
2022-09-20T10:55:28.581Z,4.60
2022-09-20T10:56:28.578Z,4.50
2022-09-20T10:57:28.580Z,3.90
2022-09-20T10:58:28.574Z,5.40
2022-09-20T10:59:28.575Z,4.40
2022-09-20T11:00:28.569Z,6.00
2022-09-20T11:01:28.687Z,4.30
2022-09-20T11:02:28.647Z,6.60
2022-09-20T11:03:28.567Z,5.50
2022-09-20T11:04:28.561Z,5.60
2022-09-20T11:05:28.568Z,5.30
2022-09-20T11:06:28.555Z,4.90
2022-09-20T11:07:28.557Z,4.70
2022-09-20T11:08:28.553Z,4.50
2022-09-20T11:09:28.550Z,3.80
2022-09-20T11:10:28.545Z,4.80
2022-09-20T11:11:28.546Z,3.90
2022-09-20T11:12:28.545Z,5.90
2022-09-20T11:13:28.545Z,4.20
2022-09-20T11:14:28.551Z,5.40
2022-09-20T11:15:28.539Z,5.30
2022-09-20T11:16:28.559Z,4.40
2022-09-20T11:17:28.559Z,5.10
2022-09-20T11:18:28.529Z,4.30
2022-09-20T11:19:28.527Z,4.10
2022-09-20T11:20:28.776Z,5.20
2022-09-20T11:21:28.525Z,5.20
2022-09-20T11:22:28.522Z,6.70
2022-09-20T11:23:31.474Z,4.60
2022-09-20T11:24:28.520Z,4.20
2022-09-20T11:25:29.730Z,6.10
2022-09-20T11:26:28.515Z,5.50
2022-09-20T11:27:28.513Z,4.10
2022-09-20T11:28:28.510Z,5.30
2022-09-20T11:29:28.507Z,4.90
2022-09-20T11:30:28.504Z,4.90
2022-09-20T11:31:28.537Z,3.90
2022-09-20T11:32:28.499Z,6.10
2022-09-20T11:33:28.520Z,6.70
2022-09-20T11:34:28.494Z,4.10
2022-09-20T11:35:28.500Z,3.70
2022-09-20T11:36:28.490Z,4.30
2022-09-20T11:37:28.494Z,4.70
2022-09-20T11:38:28.488Z,4.00
2022-09-20T11:39:28.485Z,5.00
2022-09-20T11:40:28.586Z,4.40
2022-09-20T11:41:28.492Z,4.70
2022-09-20T11:42:28.483Z,4.90
2022-09-20T11:43:28.480Z,4.10
2022-09-20T11:44:28.483Z,6.90
2022-09-20T11:45:28.863Z,4.30
2022-09-20T11:46:28.474Z,4.10
2022-09-20T11:47:52.601Z,4.70
2022-09-20T11:48:28.474Z,4.40
2022-09-20T11:49:28.499Z,4.90
2022-09-20T11:50:28.462Z,3.50
2022-09-20T11:51:28.463Z,3.30
2022-09-20T11:52:28.460Z,3.60
2022-09-20T11:53:29.714Z,3.70
2022-09-20T11:54:28.456Z,4.30
2022-09-20T11:55:28.458Z,4.30
2022-09-20T11:56:28.457Z,3.90
2022-09-20T11:57:28.452Z,3.00
2022-09-20T11:58:28.458Z,4.10
2022-09-20T11:59:28.456Z,3.00
2022-09-20T12:00:28.452Z,4.00
2022-09-20T12:01:28.890Z,2.50
2022-09-20T12:02:28.571Z,3.50
2022-09-20T12:03:28.498Z,3.70
2022-09-20T12:04:32.919Z,3.60
2022-09-20T12:05:28.459Z,2.60
2022-09-20T12:06:28.435Z,2.20
2022-09-20T12:07:28.435Z,3.50
2022-09-20T12:08:28.438Z,2.70
2022-09-20T12:09:28.433Z,2.80
2022-09-20T12:10:28.434Z,3.30
2022-09-20T12:11:28.429Z,2.30
2022-09-20T12:12:28.431Z,1.90
2022-09-20T12:13:28.422Z,2.30
2022-09-20T12:14:28.421Z,2.00
2022-09-20T12:15:28.418Z,3.50
2022-09-20T12:16:28.456Z,3.20
2022-09-20T12:17:28.415Z,2.50
2022-09-20T12:18:28.419Z,2.60
2022-09-20T12:19:28.411Z,3.20
2022-09-20T12:20:28.611Z,2.50
2022-09-20T12:21:28.439Z,2.60
2022-09-20T12:22:28.417Z,3.90
2022-09-20T12:23:28.469Z,1.80
2022-09-20T12:24:28.406Z,5.00
2022-09-20T12:25:28.405Z,2.20
2022-09-20T12:26:28.400Z,2.20
2022-09-20T12:27:28.431Z,3.90
2022-09-20T12:28:28.401Z,3.40
2022-09-20T12:29:28.396Z,2.40
2022-09-20T12:30:28.395Z,2.70
2022-09-20T12:31:28.453Z,3.80
2022-09-20T12:32:28.393Z,2.50
2022-09-20T12:33:28.388Z,2.90
2022-09-20T12:34:28.386Z,2.80
2022-09-20T12:35:28.385Z,2.90
2022-09-20T12:36:31.891Z,3.60
2022-09-20T12:37:28.380Z,4.20
2022-09-20T12:38:28.378Z,4.90
2022-09-20T12:39:29.926Z,3.80
2022-09-20T12:40:28.641Z,3.00
2022-09-20T12:41:29.144Z,3.80
2022-09-20T12:42:28.398Z,4.10
2022-09-20T12:43:28.369Z,4.90
2022-09-20T12:44:28.429Z,4.30
2022-09-20T12:45:28.439Z,3.50
2022-09-20T12:46:28.417Z,5.00
2022-09-20T12:47:28.422Z,3.30
2022-09-20T12:48:28.416Z,4.20
2022-09-20T12:49:28.359Z,3.80
2022-09-20T12:50:28.373Z,3.30
2022-09-20T12:51:28.365Z,3.20
2022-09-20T12:52:28.377Z,3.50
2022-09-20T12:53:28.355Z,4.10
2022-09-20T12:54:28.358Z,4.70
2022-09-20T12:55:28.350Z,4.30
2022-09-20T12:56:28.352Z,3.60
2022-09-20T12:57:28.351Z,4.70
2022-09-20T12:58:28.375Z,3.70
2022-09-20T12:59:28.349Z,4.50
2022-09-20T13:00:28.342Z,2.50
2022-09-20T13:01:28.449Z,4.80
2022-09-20T13:02:28.337Z,3.30
2022-09-20T13:03:28.337Z,4.20
2022-09-20T13:04:28.347Z,2.80
2022-09-20T13:05:28.338Z,4.40
2022-09-20T13:06:28.332Z,3.30
2022-09-20T13:07:28.345Z,4.20
2022-09-20T13:08:28.349Z,3.10
2022-09-20T13:09:28.324Z,3.70
2022-09-20T13:10:28.328Z,3.50
2022-09-20T13:11:28.321Z,3.70
2022-09-20T13:12:28.325Z,2.80
2022-09-20T13:13:28.326Z,4.10
2022-09-20T13:14:28.318Z,3.30
2022-09-20T13:15:28.317Z,3.10
2022-09-20T13:16:28.341Z,2.50
2022-09-20T13:17:28.313Z,2.90
2022-09-20T13:18:28.313Z,4.20
2022-09-20T13:19:28.312Z,5.10
2022-09-20T13:20:28.414Z,2.50